createdAt,value
2023-07-11T00:01:18.707Z,1.83
2023-07-11T00:03:46.170Z,1.40
2023-07-11T00:06:19.959Z,1.77
2023-07-11T00:08:47.397Z,1.40
2023-07-11T00:11:18.933Z,1.52
2023-07-11T00:13:46.980Z,1.95
2023-07-11T00:16:16.068Z,1.52
2023-07-11T00:18:44.013Z,1.42
2023-07-11T00:21:11.335Z,1.50
2023-07-11T00:23:38.644Z,1.27
2023-07-11T00:26:06.287Z,1.60
2023-07-11T00:28:34.032Z,1.58
2023-07-11T00:31:02.099Z,1.65
2023-07-11T00:33:30.351Z,1.40
2023-07-11T00:35:58.101Z,1.40
2023-07-11T00:38:26.709Z,1.50
2023-07-11T00:40:53.887Z,1.80
2023-07-11T00:43:22.721Z,1.42
2023-07-11T00:46:12.480Z,1.50
2023-07-11T00:48:54.085Z,1.80
2023-07-11T00:51:46.871Z,1.85
2023-07-11T00:54:19.197Z,1.65
2023-07-11T00:56:48.373Z,1.40
2023-07-11T00:59:18.135Z,1.77
2023-07-11T01:01:51.831Z,1.50
2023-07-11T01:04:20.686Z,1.67
2023-07-11T01:06:48.803Z,1.52
2023-07-11T01:09:17.149Z,1.45
2023-07-11T01:11:57.423Z,1.57
2023-07-11T01:14:26.419Z,1.77
2023-07-11T01:16:53.838Z,1.70
2023-07-11T01:19:23.212Z,1.63
2023-07-11T01:21:50.762Z,1.52
2023-07-11T01:24:17.992Z,1.40
2023-07-11T01:26:46.144Z,1.55
2023-07-11T01:29:13.366Z,1.73
2023-07-11T01:31:41.235Z,1.42
2023-07-11T01:34:09.076Z,1.60
2023-07-11T01:36:37.715Z,1.53
2023-07-11T01:39:07.858Z,1.98
2023-07-11T01:41:35.749Z,1.80
2023-07-11T01:44:04.504Z,1.80
2023-07-11T01:46:31.607Z,1.73
2023-07-11T01:48:59.839Z,1.83
2023-07-11T01:51:26.919Z,2.10
2023-07-11T01:53:53.997Z,1.73
2023-07-11T01:56:21.524Z,1.58
2023-07-11T01:58:48.629Z,1.95
2023-07-11T02:01:15.947Z,1.60
2023-07-11T02:03:43.203Z,1.77
2023-07-11T02:06:10.432Z,1.67
2023-07-11T02:08:37.706Z,1.33
2023-07-11T02:11:05.420Z,1.83
2023-07-11T02:13:32.616Z,1.73
2023-07-11T02:15:59.945Z,1.60
2023-07-11T02:18:27.102Z,1.58
2023-07-11T02:20:57.360Z,2.13
2023-07-11T02:23:25.432Z,2.15
2023-07-11T02:25:54.767Z,1.60
2023-07-11T02:28:23.363Z,1.80
2023-07-11T02:30:50.498Z,2.00
2023-07-11T02:33:17.560Z,1.92
2023-07-11T02:35:44.639Z,1.85
2023-07-11T02:38:11.805Z,2.37
2023-07-11T02:40:38.893Z,2.38
2023-07-11T02:43:05.986Z,1.92
2023-07-11T02:45:33.178Z,2.20
2023-07-11T02:48:00.355Z,2.13
2023-07-11T02:50:27.478Z,2.30
2023-07-11T02:52:54.537Z,1.90
2023-07-11T02:55:21.749Z,1.90
2023-07-11T02:57:48.864Z,2.13
2023-07-11T03:00:16.269Z,1.60
2023-07-11T03:02:43.448Z,1.70
2023-07-11T03:05:10.986Z,2.00
2023-07-11T03:07:38.065Z,2.30
2023-07-11T03:10:05.786Z,2.08
2023-07-11T03:12:33.042Z,2.60
2023-07-11T03:15:02.762Z,2.37
2023-07-11T03:17:31.403Z,2.10
2023-07-11T03:19:58.506Z,2.10
2023-07-11T03:22:25.703Z,2.10
2023-07-11T03:24:52.815Z,2.15
2023-07-11T03:27:19.943Z,1.97
2023-07-11T03:29:47.041Z,2.22
2023-07-11T03:32:14.906Z,2.00
2023-07-11T03:34:53.822Z,2.28
2023-07-11T03:37:22.002Z,2.10
2023-07-11T03:39:49.082Z,2.30
2023-07-11T03:42:16.233Z,1.95
2023-07-11T03:44:44.140Z,1.90
2023-07-11T03:47:11.529Z,2.22
2023-07-11T03:49:38.783Z,2.40
2023-07-11T03:52:06.471Z,2.17
2023-07-11T03:54:33.690Z,1.83
2023-07-11T03:57:00.834Z,2.55
2023-07-11T03:59:27.878Z,2.13
2023-07-11T04:01:55.067Z,2.38
2023-07-11T04:04:22.150Z,2.30
2023-07-11T04:06:49.362Z,2.20
2023-07-11T04:09:16.449Z,1.85
2023-07-11T04:11:43.533Z,1.60
2023-07-11T04:14:12.018Z,1.92
2023-07-11T04:16:39.342Z,1.80
2023-07-11T04:19:07.711Z,1.88
2023-07-11T04:21:36.268Z,1.85
2023-07-11T04:24:03.547Z,2.28
2023-07-11T04:26:30.702Z,2.08
2023-07-11T04:28:57.858Z,1.90
2023-07-11T04:31:27.231Z,1.80
2023-07-11T04:33:54.780Z,2.08
2023-07-11T04:36:21.921Z,1.67
2023-07-11T04:38:50.115Z,1.77
2023-07-11T04:41:18.738Z,1.60
2023-07-11T04:43:45.848Z,1.80
2023-07-11T04:46:12.959Z,1.70
2023-07-11T04:48:40.140Z,1.92
2023-07-11T04:51:09.784Z,2.05
2023-07-11T04:53:36.943Z,1.70
2023-07-11T04:56:09.921Z,1.52
2023-07-11T04:58:38.045Z,2.15
2023-07-11T05:01:15.328Z,1.80
2023-07-11T05:03:43.006Z,1.80
2023-07-11T05:06:10.554Z,1.80
2023-07-11T05:08:37.915Z,1.73
2023-07-11T05:11:09.732Z,2.03
2023-07-11T05:13:37.050Z,1.60
2023-07-11T05:16:15.969Z,1.60
2023-07-11T05:18:45.600Z,1.53
2023-07-11T05:21:16.526Z,1.80
2023-07-11T05:23:44.548Z,2.13
2023-07-11T05:26:12.244Z,1.60
2023-07-11T05:28:39.410Z,1.80
2023-07-11T05:31:09.206Z,1.53
2023-07-11T05:33:36.914Z,1.63
2023-07-11T05:36:34.303Z,1.88
2023-07-11T05:39:14.235Z,1.65
2023-07-11T05:41:47.222Z,1.80
2023-07-11T05:44:15.293Z,1.87
2023-07-11T05:46:44.632Z,1.55
2023-07-11T05:49:14.564Z,1.70
2023-07-11T05:51:41.747Z,1.52
2023-07-11T05:54:09.255Z,1.55
2023-07-11T05:56:36.383Z,1.33
2023-07-11T05:59:03.661Z,1.42
2023-07-11T06:01:32.521Z,1.38
2023-07-11T06:04:12.908Z,1.48
2023-07-11T06:06:45.660Z,1.45
2023-07-11T06:09:16.719Z,1.70
2023-07-11T06:11:46.207Z,1.65
2023-07-11T06:14:14.148Z,1.60
2023-07-11T06:16:43.202Z,1.48
2023-07-11T06:19:10.734Z,2.35
2023-07-11T06:21:37.944Z,1.50
2023-07-11T06:24:05.274Z,1.23
2023-07-11T06:26:32.397Z,1.30
2023-07-11T06:28:59.816Z,1.70
2023-07-11T06:31:27.180Z,1.50
2023-07-11T06:33:54.346Z,1.30
2023-07-11T06:36:21.531Z,1.75
2023-07-11T06:38:48.638Z,1.40
2023-07-11T06:41:15.768Z,1.67
2023-07-11T06:43:42.953Z,1.60
2023-07-11T06:46:10.667Z,2.10
2023-07-11T06:48:38.046Z,1.85
2023-07-11T06:51:06.221Z,1.73
2023-07-11T06:53:36.047Z,1.48
2023-07-11T06:56:04.372Z,1.60
2023-07-11T06:58:32.004Z,1.80
2023-07-11T07:01:16.160Z,1.60
2023-07-11T07:03:53.750Z,1.60
2023-07-11T07:06:21.024Z,1.50
2023-07-11T07:08:48.269Z,2.05
2023-07-11T07:11:16.868Z,1.60
2023-07-11T07:13:51.950Z,1.58
2023-07-11T07:16:23.113Z,1.83
2023-07-11T07:18:50.223Z,2.28
2023-07-11T07:21:17.425Z,2.05
2023-07-11T07:23:44.520Z,1.73
2023-07-11T07:26:11.906Z,1.65
2023-07-11T07:28:39.084Z,1.73
2023-07-11T07:31:07.571Z,1.60
2023-07-11T07:33:35.929Z,1.60
2023-07-11T07:36:07.272Z,2.20
2023-07-11T07:38:34.935Z,1.95
2023-07-11T07:41:06.622Z,2.22
2023-07-11T07:43:35.444Z,1.60
2023-07-11T07:46:05.072Z,1.92
2023-07-11T07:48:33.082Z,1.40
2023-07-11T07:51:07.828Z,1.65
2023-07-11T07:53:35.405Z,2.22
2023-07-11T07:56:35.866Z,2.03
2023-07-11T07:59:03.720Z,1.77
2023-07-11T08:01:32.520Z,1.77
2023-07-11T08:03:59.688Z,1.75
2023-07-11T08:06:27.775Z,1.80
2023-07-11T08:08:55.540Z,2.13
2023-07-11T08:11:22.831Z,1.88
2023-07-11T08:13:58.999Z,1.97
2023-07-11T08:16:34.128Z,1.90
2023-07-11T08:19:06.935Z,2.10
2023-07-11T08:21:36.800Z,2.03
2023-07-11T08:24:07.795Z,1.67
2023-07-11T08:26:35.268Z,1.93
2023-07-11T08:29:09.637Z,1.95
2023-07-11T08:31:40.678Z,2.00
2023-07-11T08:34:07.768Z,1.83
2023-07-11T08:36:34.951Z,2.17
2023-07-11T08:39:02.178Z,2.20
2023-07-11T08:41:49.330Z,1.63
2023-07-11T08:44:47.083Z,2.13
2023-07-11T08:47:33.093Z,2.00
2023-07-11T08:50:28.640Z,2.30
2023-07-11T08:53:10.787Z,2.13
2023-07-11T08:55:43.397Z,2.10
2023-07-11T08:58:30.556Z,2.22
2023-07-11T09:00:59.403Z,2.30
2023-07-11T09:03:48.495Z,2.47
2023-07-11T09:06:27.485Z,1.77
2023-07-11T09:08:55.636Z,1.92
2023-07-11T09:11:42.986Z,2.13
2023-07-11T09:14:30.033Z,1.98
2023-07-11T09:17:57.526Z,2.00
2023-07-11T09:21:00.188Z,1.87
2023-07-11T09:23:40.167Z,2.20
2023-07-11T09:26:15.150Z,2.28
2023-07-11T09:28:43.632Z,1.88
2023-07-11T09:31:19.147Z,1.90
2023-07-11T09:33:56.046Z,2.00
2023-07-11T09:36:31.651Z,1.65
2023-07-11T09:39:42.610Z,1.98
2023-07-11T09:42:42.037Z,2.13
2023-07-11T09:45:17.049Z,1.90
2023-07-11T09:48:00.181Z,2.10
2023-07-11T09:51:13.105Z,1.73
2023-07-11T09:53:46.272Z,1.67
2023-07-11T09:56:18.036Z,1.88
2023-07-11T09:58:53.442Z,2.20
2023-07-11T10:01:35.226Z,2.10
2023-07-11T10:04:07.330Z,1.95
2023-07-11T10:06:48.166Z,2.30
2023-07-11T10:09:31.931Z,1.92
2023-07-11T10:12:16.016Z,2.00
2023-07-11T10:14:48.330Z,2.00
2023-07-11T10:17:35.950Z,2.28
2023-07-11T10:20:18.075Z,2.50
2023-07-11T10:22:53.987Z,1.98
2023-07-11T10:25:28.647Z,1.70
2023-07-11T10:28:07.416Z,2.00
2023-07-11T10:30:35.922Z,2.10
2023-07-11T10:35:56.560Z,1.92
2023-07-11T10:38:48.707Z,2.40
2023-07-11T10:41:51.184Z,1.87
2023-07-11T10:44:41.655Z,1.80
2023-07-11T10:47:10.451Z,2.15
2023-07-11T10:49:45.499Z,2.33
2023-07-11T10:52:27.791Z,1.83
2023-07-11T10:55:21.311Z,2.27
2023-07-11T10:57:53.433Z,2.20
2023-07-11T11:00:37.790Z,2.35
2023-07-11T11:03:45.175Z,2.17
2023-07-11T11:07:00.431Z,2.20
2023-07-11T11:09:59.571Z,2.73
2023-07-11T11:12:59.737Z,2.03
2023-07-11T11:15:54.512Z,2.30
2023-07-11T11:18:44.237Z,2.42
2023-07-11T11:24:51.992Z,2.10
2023-07-11T11:27:43.702Z,2.08
2023-07-11T11:30:45.063Z,2.40
2023-07-11T11:33:45.979Z,2.05
2023-07-11T11:36:43.816Z,2.35
2023-07-11T11:39:25.909Z,1.80
2023-07-11T11:41:58.858Z,1.80
2023-07-11T11:48:21.515Z,2.13
2023-07-11T11:52:44.609Z,2.20
2023-07-11T11:55:41.527Z,2.15
2023-07-11T11:58:17.524Z,1.83
2023-07-11T12:00:51.478Z,2.08
2023-07-11T12:03:44.541Z,2.40
2023-07-11T12:06:36.495Z,1.90
2023-07-11T12:09:18.868Z,2.67
2023-07-11T12:12:12.895Z,2.25
2023-07-11T12:14:45.679Z,1.98
2023-07-11T12:17:34.032Z,2.40
2023-07-11T12:20:01.158Z,1.73
2023-07-11T12:22:51.264Z,2.03
2023-07-11T12:25:36.501Z,2.03
2023-07-11T12:28:03.712Z,2.45
2023-07-11T12:30:41.682Z,2.10
2023-07-11T12:33:35.296Z,1.93
2023-07-11T12:36:30.068Z,1.73
2023-07-11T12:39:33.376Z,1.98
2023-07-11T12:42:37.454Z,1.92
2023-07-11T12:45:18.101Z,1.73
2023-07-11T12:47:50.701Z,1.90
2023-07-11T12:50:29.658Z,1.90
2023-07-11T12:53:02.504Z,2.20
2023-07-11T12:55:31.757Z,2.33
2023-07-11T12:57:59.502Z,2.15
2023-07-11T13:00:31.837Z,1.70
2023-07-11T13:03:27.227Z,2.00
2023-07-11T13:06:19.685Z,2.00
2023-07-11T13:08:48.846Z,2.17
2023-07-11T13:11:24.059Z,2.20
2023-07-11T13:13:53.024Z,2.47
2023-07-11T13:16:39.486Z,1.70
2023-07-11T13:19:13.699Z,2.15
2023-07-11T13:21:45.137Z,2.28
2023-07-11T13:24:22.374Z,1.67
2023-07-11T13:26:51.548Z,1.90
2023-07-11T13:29:22.286Z,2.10
2023-07-11T13:32:03.932Z,1.85
2023-07-11T13:34:33.022Z,2.00
2023-07-11T13:37:00.548Z,2.05
2023-07-11T13:39:35.637Z,2.10
2023-07-11T13:42:11.828Z,2.10
2023-07-11T13:44:51.998Z,2.13
2023-07-11T13:47:41.598Z,2.20
2023-07-11T13:50:19.031Z,2.42
2023-07-11T13:52:56.542Z,1.80
2023-07-11T13:55:43.563Z,1.92
2023-07-11T13:58:11.369Z,1.83
2023-07-11T14:00:46.997Z,1.95
2023-07-11T14:03:24.714Z,2.10
2023-07-11T14:05:59.200Z,2.57
2023-07-11T14:08:27.259Z,1.88
2023-07-11T14:10:54.731Z,2.03
2023-07-11T14:13:26.295Z,2.10
2023-07-11T14:15:55.775Z,2.17
2023-07-11T14:18:23.076Z,1.80
2023-07-11T14:20:50.251Z,1.80
2023-07-11T14:23:24.994Z,2.25
2023-07-11T14:25:52.662Z,2.03
2023-07-11T14:28:20.398Z,2.10
2023-07-11T14:30:48.252Z,2.40
2023-07-11T14:33:20.306Z,2.05
2023-07-11T14:35:49.001Z,1.90
2023-07-11T14:38:21.433Z,2.10
2023-07-11T14:40:48.916Z,1.77
2023-07-11T14:43:20.348Z,2.07
2023-07-11T14:45:47.462Z,2.38
2023-07-11T14:48:24.318Z,2.13
2023-07-11T14:51:02.085Z,2.00
2023-07-11T14:53:40.201Z,1.90
2023-07-11T14:58:49.088Z,2.10
2023-07-11T15:01:16.693Z,2.10
2023-07-11T15:16:52.759Z,2.60
2023-07-11T15:19:27.423Z,2.22
2023-07-11T15:22:06.283Z,2.30
2023-07-11T15:24:40.599Z,1.95
2023-07-11T15:27:14.666Z,2.20
2023-07-11T15:29:42.653Z,2.00
2023-07-11T15:32:23.478Z,2.10
2023-07-11T15:34:51.390Z,2.03
2023-07-11T15:37:18.492Z,2.25
2023-07-11T15:39:45.601Z,2.30
2023-07-11T15:42:33.002Z,2.30
2023-07-11T15:45:00.643Z,2.10
2023-07-11T15:47:27.847Z,2.33
2023-07-11T15:49:54.957Z,2.63
2023-07-11T15:52:22.528Z,2.55
2023-07-11T15:54:49.677Z,2.70
2023-07-11T15:57:24.755Z,2.10
2023-07-11T15:59:52.570Z,2.20
2023-07-11T16:02:24.252Z,2.10
2023-07-11T16:04:51.587Z,2.60
2023-07-11T16:07:20.878Z,2.20
2023-07-11T16:09:48.625Z,2.38
2023-07-11T16:12:17.618Z,2.13
2023-07-11T16:14:45.640Z,2.25
2023-07-11T16:17:20.798Z,2.40
2023-07-11T16:19:51.510Z,2.20
2023-07-11T16:22:22.808Z,2.30
2023-07-11T16:24:51.108Z,2.33
2023-07-11T16:27:18.700Z,2.10
2023-07-11T16:29:48.155Z,2.20
2023-07-11T16:32:16.206Z,1.95
2023-07-11T16:34:45.086Z,2.10
2023-07-11T16:37:30.508Z,2.13
2023-07-11T16:39:57.599Z,2.10
2023-07-11T16:42:24.878Z,2.08
2023-07-11T16:44:53.229Z,1.90
2023-07-11T16:47:20.503Z,1.90
2023-07-11T16:49:50.695Z,2.10
2023-07-11T16:52:17.933Z,6.68
2023-07-11T16:54:48.660Z,5.22
2023-07-11T16:57:19.393Z,3.05
2023-07-11T16:59:46.590Z,2.17
2023-07-11T17:02:24.664Z,2.00
2023-07-11T17:04:53.022Z,2.05
2023-07-11T17:07:25.003Z,3.80
2023-07-11T17:09:52.138Z,2.10
2023-07-11T17:12:20.525Z,2.03
2023-07-11T17:14:47.737Z,2.33
2023-07-11T17:17:26.298Z,2.28
2023-07-11T17:19:56.566Z,2.30
2023-07-11T17:22:24.711Z,2.15
2023-07-11T17:24:51.867Z,2.13
2023-07-11T17:27:31.423Z,1.97
2023-07-11T17:29:58.666Z,2.17
2023-07-11T17:32:30.496Z,2.00
2023-07-11T17:34:57.677Z,1.73
2023-07-11T17:37:32.035Z,2.10
2023-07-11T17:39:59.920Z,2.30
2023-07-11T17:42:28.922Z,2.30
2023-07-11T17:44:58.954Z,2.38
2023-07-11T17:50:00.271Z,1.90
2023-07-11T17:52:30.894Z,1.77
2023-07-11T17:54:58.321Z,1.77
2023-07-11T17:57:30.679Z,1.67
2023-07-11T17:59:57.892Z,1.67
2023-07-11T18:02:38.244Z,1.73
2023-07-11T18:05:22.411Z,1.43
2023-07-11T18:07:50.884Z,1.67
2023-07-11T18:10:30.150Z,1.80
2023-07-11T18:13:09.454Z,1.40
2023-07-11T18:15:44.741Z,1.50
2023-07-11T18:18:27.229Z,1.60
2023-07-11T18:20:57.219Z,1.60
2023-07-11T18:23:25.227Z,1.77
2023-07-11T18:25:54.103Z,1.70
2023-07-11T18:28:23.447Z,2.08
2023-07-11T18:30:51.230Z,1.53
2023-07-11T18:33:19.436Z,1.75
2023-07-11T18:35:47.988Z,1.60
2023-07-11T18:38:26.441Z,1.67
2023-07-11T18:40:53.729Z,1.63
2023-07-11T18:43:21.512Z,1.83
2023-07-11T18:45:50.303Z,1.55
2023-07-11T18:48:17.736Z,1.83
2023-07-11T18:50:45.210Z,1.52
2023-07-11T18:53:12.613Z,1.60
2023-07-11T18:55:45.449Z,1.40
2023-07-11T18:58:13.884Z,1.50
2023-07-11T19:00:48.324Z,1.83
2023-07-11T19:03:18.416Z,1.52
2023-07-11T19:05:46.668Z,2.08
2023-07-11T19:08:20.003Z,1.60
2023-07-11T19:10:48.043Z,1.80
2023-07-11T19:13:15.561Z,1.80
2023-07-11T19:15:44.780Z,1.90
2023-07-11T19:18:22.113Z,2.25
2023-07-11T19:20:50.535Z,1.80
2023-07-11T19:23:27.137Z,1.90
2023-07-11T19:25:55.280Z,2.40
2023-07-11T19:28:31.495Z,1.98
2023-07-11T19:31:04.427Z,2.13
2023-07-11T19:33:31.687Z,1.93
2023-07-11T19:36:00.320Z,2.00
2023-07-11T19:38:30.420Z,2.00
2023-07-11T19:40:57.837Z,2.13
2023-07-11T19:43:25.359Z,2.75
2023-07-11T19:45:56.919Z,2.10
2023-07-11T19:48:27.441Z,1.90
2023-07-11T19:50:58.314Z,2.13
2023-07-11T19:53:26.053Z,2.13
2023-07-11T19:55:57.322Z,2.03
2023-07-11T19:58:28.764Z,2.10
2023-07-11T20:01:02.104Z,1.95
2023-07-11T20:03:32.633Z,1.85
2023-07-11T20:06:02.076Z,1.50
2023-07-11T20:08:34.079Z,1.60
2023-07-11T20:11:05.411Z,1.70
2023-07-11T20:13:32.854Z,1.38
2023-07-11T20:16:20.371Z,1.75
2023-07-11T20:18:47.895Z,1.50
2023-07-11T20:21:20.610Z,1.13
2023-07-11T20:23:51.351Z,1.13
2023-07-11T20:26:28.088Z,1.30
2023-07-11T20:28:58.053Z,0.90
2023-07-11T20:31:26.076Z,1.15
2023-07-11T20:33:53.456Z,0.85
2023-07-11T20:36:26.978Z,1.00
2023-07-11T20:38:58.200Z,1.13
2023-07-11T20:41:26.663Z,1.13
2023-07-11T20:43:53.991Z,1.17
2023-07-11T20:46:23.744Z,1.08
2023-07-11T20:48:51.767Z,1.20
2023-07-11T20:51:21.354Z,0.90
2023-07-11T20:53:48.886Z,1.30
2023-07-11T20:56:22.720Z,1.35
2023-07-11T20:58:52.668Z,1.20
2023-07-11T21:01:22.397Z,1.50
2023-07-11T21:03:50.024Z,2.20
2023-07-11T21:06:34.561Z,2.40
2023-07-11T21:09:04.832Z,2.78
2023-07-11T21:11:32.040Z,2.45
2023-07-11T21:13:59.244Z,2.57
2023-07-11T21:16:32.885Z,2.17
2023-07-11T21:19:02.869Z,2.03
2023-07-11T21:21:30.605Z,1.50
2023-07-11T21:23:57.841Z,1.30
2023-07-11T21:26:28.242Z,1.20
2023-07-11T21:28:56.109Z,1.85
2023-07-11T21:31:24.937Z,1.73
2023-07-11T21:33:52.699Z,1.60
2023-07-11T21:36:22.930Z,1.17
2023-07-11T21:38:51.488Z,1.50
2023-07-11T21:41:21.518Z,1.52
2023-07-11T21:43:48.869Z,1.70
2023-07-11T21:46:36.501Z,1.55
2023-07-11T21:49:03.676Z,1.30
2023-07-11T21:51:34.021Z,1.43
2023-07-11T21:54:01.218Z,1.35
2023-07-11T21:56:30.799Z,1.20
2023-07-11T21:59:01.921Z,1.30
2023-07-11T22:01:30.580Z,1.40
2023-07-11T22:03:57.866Z,1.37
2023-07-11T22:06:31.662Z,1.55
2023-07-11T22:08:59.356Z,1.55
2023-07-11T22:11:26.922Z,1.40
2023-07-11T22:13:54.134Z,1.58
2023-07-11T22:16:25.280Z,1.67
2023-07-11T22:18:53.608Z,1.20
2023-07-11T22:21:23.947Z,1.70
2023-07-11T22:23:51.077Z,1.35
2023-07-11T22:26:27.919Z,1.40
2023-07-11T22:28:58.482Z,1.30
2023-07-11T22:31:26.814Z,1.40
2023-07-11T22:33:54.074Z,1.20
2023-07-11T22:36:21.170Z,1.20
2023-07-11T22:38:48.314Z,1.45
2023-07-11T22:41:15.511Z,1.20
2023-07-11T22:43:42.658Z,1.30
2023-07-11T22:46:21.842Z,1.63
2023-07-11T22:48:50.262Z,1.73
2023-07-11T22:51:19.256Z,1.20
2023-07-11T22:53:47.820Z,1.70
2023-07-11T22:56:23.304Z,1.55
2023-07-11T22:58:51.790Z,1.55
2023-07-11T23:01:21.287Z,1.30
2023-07-11T23:03:48.582Z,1.10
2023-07-11T23:06:21.249Z,0.97
2023-07-11T23:08:49.553Z,1.05
2023-07-11T23:11:17.750Z,1.13
2023-07-11T23:13:49.027Z,1.00
2023-07-11T23:16:30.082Z,1.30
2023-07-11T23:19:03.644Z,1.10
2023-07-11T23:21:31.679Z,1.08
2023-07-11T23:23:59.251Z,1.23
2023-07-11T23:26:27.101Z,1.38
2023-07-11T23:28:56.316Z,1.10
2023-07-11T23:31:24.942Z,0.90
2023-07-11T23:33:52.343Z,1.17
2023-07-11T23:36:22.466Z,1.35
2023-07-11T23:38:53.195Z,1.02
2023-07-11T23:41:21.152Z,1.20
2023-07-11T23:43:48.702Z,1.00
2023-07-11T23:46:30.635Z,1.10
2023-07-11T23:48:59.299Z,1.15
2023-07-11T23:51:29.325Z,0.85
2023-07-11T23:53:57.484Z,0.85
2023-07-11T23:56:31.616Z,0.90
2023-07-11T23:58:59.863Z,1.00
